Time;durP1;ratioP1;P1;durP2;ratioP2;P2;SDS_P1;SDS_P2;PMS_P1;PMS_P2;Temp;Humidity;BMP_temperature;BMP_pressure;BME280_temperature;BME280_humidity;BME280_pressure;Samples;Min_cycle;Max_cycle;Signal;HPM_P1;HPM_P2
2022/06/11 00:01:51;;;;;;;3.17;1.40;;;21.70;68.20;;;;;;4932071;28;88524;-74
2022/06/11 00:04:45;;;;;;;2.83;1.60;;;21.60;68.30;;;;;;4933359;28;87525;-72
2022/06/11 00:07:18;;;;;;;2.72;1.60;;;21.70;68.30;;;;;;4930307;28;91223;-75
2022/06/11 00:09:44;;;;;;;1.77;1.48;;;21.60;68.40;;;;;;4931840;28;87165;-69
2022/06/11 00:12:12;;;;;;;3.40;1.85;;;21.70;68.30;;;;;;4932909;28;87795;-75
2022/06/11 00:14:38;;;;;;;3.33;1.67;;;21.70;68.30;;;;;;4932533;28;87759;-70
2022/06/11 00:17:11;;;;;;;3.08;1.50;;;21.70;68.30;;;;;;4932104;28;87569;-74
2022/06/11 00:19:37;;;;;;;2.40;1.52;;;21.70;68.30;;;;;;4930911;28;86995;-77
2022/06/11 00:22:04;;;;;;;2.97;1.55;;;21.70;68.40;;;;;;4933491;28;87503;-75
2022/06/11 00:24:30;;;;;;;1.98;1.40;;;21.60;68.20;;;;;;4932113;28;87320;-70
2022/06/11 00:26:58;;;;;;;1.92;1.63;;;21.60;68.10;;;;;;4930952;28;89031;-75
2022/06/11 00:29:27;;;;;;;1.83;1.30;;;21.60;68.20;;;;;;4932257;28;88759;-75
2022/06/11 00:31:52;;;;;;;1.90;1.40;;;21.60;68.00;;;;;;4930977;28;87387;-72
2022/06/11 00:34:18;;;;;;;2.65;1.80;;;21.60;68.30;;;;;;4930864;28;88363;-71
2022/06/11 00:36:45;;;;;;;2.58;1.50;;;21.70;68.20;;;;;;4934656;28;87919;-69
2022/06/11 00:39:15;;;;;;;2.20;1.27;;;21.60;68.00;;;;;;4951465;28;88658;-71
2022/06/11 00:41:42;;;;;;;;;;;21.60;68.10;;;;;;4932161;28;87240;-73
2022/06/11 00:44:08;;;;;;;1.67;1.40;;;21.60;68.20;;;;;;4932370;28;86961;-70
2022/06/11 00:46:43;;;;;;;2.35;1.52;;;21.60;68.10;;;;;;4931188;28;88104;-75
2022/06/11 00:49:16;;;;;;;2.03;1.25;;;21.60;68.10;;;;;;4933422;28;87850;-69
2022/06/11 00:51:42;;;;;;;2.17;1.52;;;21.60;68.40;;;;;;4937718;28;88872;-77
2022/06/11 00:54:14;;;;;;;2.83;1.50;;;21.60;68.00;;;;;;4931431;28;87836;-72
2022/06/11 00:56:47;;;;;;;1.48;1.35;;;21.60;68.10;;;;;;4931706;28;87534;-70
2022/06/11 00:59:17;;;;;;;3.33;1.40;;;21.60;68.00;;;;;;4937017;28;88163;-70
2022/06/11 01:01:43;;;;;;;2.10;1.70;;;21.60;68.10;;;;;;4931447;28;87340;-69
2022/06/11 01:04:50;;;;;;;3.25;1.85;;;21.60;68.00;;;;;;4932092;28;88256;-74
2022/06/11 01:07:18;;;;;;;1.40;1.30;;;21.60;68.10;;;;;;4870490;28;89268;-72
2022/06/11 01:10:21;;;;;;;1.85;1.48;;;21.60;68.10;;;;;;4871423;28;87832;-69
2022/06/11 01:13:19;;;;;;;2.97;1.60;;;21.60;68.20;;;;;;4915474;28;87865;-70
2022/06/11 01:15:56;;;;;;;2.43;1.70;;;21.60;68.00;;;;;;4932286;28;87575;-70
2022/06/11 01:18:59;;;;;;;2.00;1.50;;;21.60;68.10;;;;;;4933712;28;88134;-72
2022/06/11 01:21:44;;;;;;;1.70;1.60;;;21.50;68.00;;;;;;4930970;28;87937;-71
2022/06/11 01:24:16;;;;;;;1.55;1.40;;;21.60;68.10;;;;;;4930691;28;87672;-71
2022/06/11 01:27:06;;;;;;;2.50;1.30;;;21.50;67.90;;;;;;4930648;28;87353;-70
2022/06/11 01:29:50;;;;;;;2.08;1.58;;;21.60;68.10;;;;;;4930455;28;87678;-71
2022/06/11 01:32:40;;;;;;;2.38;1.63;;;21.60;68.10;;;;;;4935718;28;88849;-71
2022/06/11 01:35:31;;;;;;;1.83;1.58;;;21.50;68.00;;;;;;4931149;28;88034;-70
2022/06/11 01:38:25;;;;;;;2.20;1.33;;;21.50;67.90;;;;;;4929466;28;89174;-70
2022/06/11 01:41:23;;;;;;;2.13;1.38;;;21.50;68.60;;;;;;4930598;28;88234;-70
2022/06/11 01:43:52;;;;;;;1.95;1.55;;;21.50;67.80;;;;;;4930034;28;87796;-72
2022/06/11 01:46:24;;;;;;;1.42;1.33;;;21.50;67.70;;;;;;4932330;28;88511;-69
2022/06/11 01:48:54;;;;;;;2.47;1.50;;;21.50;67.80;;;;;;4931487;28;89123;-70
2022/06/11 01:51:31;;;;;;;2.25;1.60;;;21.50;67.80;;;;;;4929958;28;88165;-73
2022/06/11 01:54:13;;;;;;;1.85;1.30;;;21.50;67.80;;;;;;4930297;28;87285;-72
2022/06/11 01:56:58;;;;;;;2.10;1.40;;;21.50;67.90;;;;;;4936326;28;87449;-71
2022/06/11 01:59:47;;;;;;;1.77;1.30;;;21.50;67.70;;;;;;4930552;28;87981;-73
2022/06/11 02:02:19;;;;;;;2.75;1.60;;;21.50;67.80;;;;;;4934702;28;88797;-72
2022/06/11 02:04:59;;;;;;;2.33;1.30;;;21.50;67.60;;;;;;4930368;28;87561;-71
2022/06/11 02:07:39;;;;;;;2.20;1.33;;;21.50;67.70;;;;;;4930753;28;87612;-70
2022/06/11 02:10:19;;;;;;;2.20;1.50;;;21.50;68.00;;;;;;4935601;28;87114;-71
2022/06/11 02:13:03;;;;;;;1.85;1.48;;;21.50;67.60;;;;;;4931405;28;89346;-75
2022/06/11 02:15:45;;;;;;;3.55;1.38;;;21.50;67.80;;;;;;4936477;28;89762;-74
2022/06/11 02:18:16;;;;;;;1.45;1.35;;;21.50;67.90;;;;;;4939125;28;87057;-71
2022/06/11 02:20:49;;;;;;;1.33;1.10;;;21.50;67.80;;;;;;4938666;28;88287;-73
2022/06/11 02:23:21;;;;;;;1.50;1.40;;;21.50;67.80;;;;;;4934670;28;91852;-71
2022/06/11 02:25:53;;;;;;;4.18;1.70;;;21.50;68.50;;;;;;4933801;28;87824;-69
2022/06/11 02:28:22;;;;;;;2.38;1.40;;;21.50;67.50;;;;;;4933880;28;87762;-73
2022/06/11 02:30:50;;;;;;;1.67;1.40;;;21.50;67.70;;;;;;4937720;28;86959;-71
2022/06/11 02:33:18;;;;;;;2.10;1.52;;;21.50;67.70;;;;;;4935645;28;88121;-73
2022/06/11 02:35:53;;;;;;;1.95;1.45;;;21.50;67.50;;;;;;4940445;28;87656;-76
2022/06/11 02:38:23;;;;;;;1.67;1.40;;;21.50;67.30;;;;;;4932026;28;89022;-73
2022/06/11 02:41:12;;;;;;;1.58;1.30;;;21.50;67.50;;;;;;4932669;28;87516;-78
2022/06/11 02:43:38;;;;;;;1.77;1.67;;;21.50;67.50;;;;;;4933281;28;88337;-71
2022/06/11 02:46:41;;;;;;;2.30;1.40;;;21.50;67.50;;;;;;4938775;28;88005;-75
2022/06/11 02:48:51;;;;;;;3.20;1.40;;;21.50;67.50;;;;;;4933372;28;87898;-74
2022/06/11 02:51:19;;;;;;;1.40;1.30;;;21.50;67.50;;;;;;4933796;28;87296;-76
2022/06/11 02:53:44;;;;;;;1.77;1.50;;;21.50;67.50;;;;;;4931551;28;88964;-72
2022/06/11 02:56:11;;;;;;;1.92;1.40;;;21.50;67.40;;;;;;4961499;28;90847;-71
2022/06/11 02:58:37;;;;;;;2.15;1.42;;;21.50;67.30;;;;;;4933669;28;87444;-76
2022/06/11 03:01:03;;;;;;;1.95;1.50;;;21.50;67.40;;;;;;4933647;28;87686;-72
2022/06/11 03:03:29;;;;;;;1.73;1.20;;;21.50;67.50;;;;;;4931212;28;88937;-72
2022/06/11 03:05:54;;;;;;;2.45;1.63;;;21.50;67.50;;;;;;4934533;28;88005;-73
2022/06/11 03:08:21;;;;;;;1.58;1.17;;;21.50;67.40;;;;;;4934703;28;87532;-71
2022/06/11 03:10:54;;;;;;;1.38;1.27;;;21.50;67.50;;;;;;4939258;28;87902;-69
2022/06/11 03:13:20;;;;;;;2.10;1.23;;;21.50;67.50;;;;;;4933102;28;88145;-72
2022/06/11 03:15:46;;;;;;;2.38;1.40;;;21.50;67.40;;;;;;4933414;28;87310;-70
2022/06/11 03:18:13;;;;;;;1.88;1.40;;;21.50;67.40;;;;;;4933628;28;88014;-70
2022/06/11 03:20:39;;;;;;;2.03;1.40;;;21.50;67.40;;;;;;4937428;28;87410;-69
2022/06/11 03:23:06;;;;;;;1.52;1.30;;;21.50;67.20;;;;;;4949372;28;89890;-73
2022/06/11 03:25:32;;;;;;;2.50;1.20;;;21.50;67.70;;;;;;4950067;28;89001;-71
2022/06/11 03:27:58;;;;;;;1.90;1.58;;;21.50;67.40;;;;;;4933476;28;88518;-69
2022/06/11 03:30:25;;;;;;;2.60;1.77;;;21.50;67.70;;;;;;4955446;28;88143;-69
2022/06/11 03:32:52;;;;;;;2.38;1.40;;;21.50;67.50;;;;;;4940116;28;88343;-74
2022/06/11 03:35:18;;;;;;;1.33;1.20;;;21.50;67.40;;;;;;4931784;28;87776;-68
2022/06/11 03:37:43;;;;;;;1.30;1.20;;;21.50;67.50;;;;;;4933512;28;87336;-71
2022/06/11 03:40:09;;;;;;;2.47;1.45;;;21.50;67.50;;;;;;4933033;28;87390;-72
2022/06/11 03:42:35;;;;;;;1.75;1.40;;;21.50;67.60;;;;;;4933500;28;88476;-69
2022/06/11 03:45:02;;;;;;;1.30;1.20;;;21.50;67.40;;;;;;4942634;28;87501;-75
2022/06/11 03:47:28;;;;;;;1.92;1.40;;;21.50;67.40;;;;;;4938625;28;87618;-69
2022/06/11 03:49:54;;;;;;;1.40;1.30;;;21.50;67.50;;;;;;4936586;28;88287;-70
2022/06/11 03:52:19;;;;;;;1.92;1.20;;;21.50;67.50;;;;;;4938230;28;88996;-76
2022/06/11 03:54:46;;;;;;;1.33;1.20;;;21.50;67.60;;;;;;4939204;28;88575;-70
2022/06/11 03:57:11;;;;;;;1.55;1.45;;;21.40;67.30;;;;;;4932764;28;87059;-69
2022/06/11 03:59:37;;;;;;;2.10;1.45;;;21.50;67.40;;;;;;4930434;28;87444;-70
2022/06/11 04:02:03;;;;;;;1.40;1.30;;;21.50;67.40;;;;;;4932941;28;88152;-70
2022/06/11 04:04:29;;;;;;;1.77;1.42;;;21.40;67.40;;;;;;4947026;28;92081;-74
2022/06/11 04:06:58;;;;;;;1.33;1.23;;;21.50;67.60;;;;;;4932465;28;87924;-70
2022/06/11 04:09:34;;;;;;;1.13;1.02;;;21.50;67.60;;;;;;4931417;28;87694;-70
2022/06/11 04:12:01;;;;;;;1.65;1.20;;;21.50;67.70;;;;;;4931381;28;87838;-71
2022/06/11 04:14:27;;;;;;;1.67;1.48;;;21.40;67.50;;;;;;4931925;28;88198;-69
2022/06/11 04:17:01;;;;;;;1.85;1.50;;;21.40;67.70;;;;;;4932025;28;87947;-69
2022/06/11 04:19:33;;;;;;;1.90;1.65;;;21.40;67.50;;;;;;4937003;28;87569;-71
2022/06/11 04:22:00;;;;;;;1.60;1.35;;;21.50;67.50;;;;;;4935986;28;87594;-72
2022/06/11 04:24:28;;;;;;;2.08;1.20;;;21.50;67.50;;;;;;4936006;28;87856;-77
2022/06/11 04:26:56;;;;;;;1.58;1.48;;;21.40;67.40;;;;;;4932667;28;87618;-74
2022/06/11 04:29:26;;;;;;;1.60;1.27;;;21.40;67.60;;;;;;4940766;28;87934;-70
2022/06/11 04:31:55;;;;;;;1.90;1.30;;;21.50;67.60;;;;;;4931589;28;87929;-70
2022/06/11 04:34:21;;;;;;;1.88;1.70;;;21.40;67.50;;;;;;4933052;28;87182;-70
2022/06/11 04:36:48;;;;;;;1.42;1.10;;;21.40;67.50;;;;;;4935475;28;86937;-74
2022/06/11 04:39:16;;;;;;;1.30;1.20;;;21.40;67.40;;;;;;4944604;28;89496;-74
2022/06/11 04:41:44;;;;;;;1.50;1.25;;;21.40;67.40;;;;;;4931502;28;93073;-70
2022/06/11 04:44:09;;;;;;;2.53;1.60;;;21.40;67.30;;;;;;4935443;28;88159;-70
2022/06/11 04:46:36;;;;;;;1.48;1.10;;;21.40;67.30;;;;;;4933766;28;87219;-73
2022/06/11 04:49:04;;;;;;;1.60;1.17;;;21.40;67.30;;;;;;4937811;28;88000;-72
2022/06/11 04:51:30;;;;;;;1.73;1.20;;;21.40;67.40;;;;;;4929654;28;89280;-69
2022/06/11 04:53:56;;;;;;;1.40;1.30;;;21.40;67.30;;;;;;4931726;28;87558;-70
2022/06/11 04:56:24;;;;;;;1.55;1.40;;;21.40;67.50;;;;;;4930566;28;88108;-75
2022/06/11 04:58:51;;;;;;;1.95;1.30;;;21.40;67.40;;;;;;4941032;28;86802;-73
2022/06/11 05:01:18;;;;;;;1.55;1.45;;;21.40;67.50;;;;;;4931847;28;88179;-71
2022/06/11 05:03:43;;;;;;;1.10;1.02;;;21.40;67.30;;;;;;4930983;28;88217;-75
2022/06/11 05:06:11;;;;;;;1.38;1.13;;;21.40;67.40;;;;;;4935605;28;88507;-69
2022/06/11 05:08:36;;;;;;;1.65;1.55;;;21.40;67.50;;;;;;4932369;28;87536;-71
2022/06/11 05:11:04;;;;;;;1.90;1.30;;;21.40;67.50;;;;;;4934542;28;88173;-71
2022/06/11 05:13:30;;;;;;;1.20;1.10;;;21.40;67.50;;;;;;4928738;28;87548;-74
2022/06/11 05:15:59;;;;;;;1.20;1.10;;;21.50;67.60;;;;;;4930622;28;87393;-72
2022/06/11 05:18:26;;;;;;;;;;;21.40;67.30;;;;;;4931935;28;87434;-74
2022/06/11 05:20:52;;;;;;;1.50;1.20;;;21.40;67.50;;;;;;4937970;28;87632;-76
2022/06/11 05:23:18;;;;;;;1.23;1.13;;;21.40;67.50;;;;;;4929699;28;90647;-70
2022/06/11 05:25:44;;;;;;;1.20;1.10;;;21.50;67.40;;;;;;4933893;28;86881;-72
2022/06/11 05:28:15;;;;;;;1.30;1.20;;;21.40;67.30;;;;;;4937457;28;87476;-70
2022/06/11 05:30:41;;;;;;;1.38;1.25;;;21.40;67.50;;;;;;4935206;28;89084;-75
2022/06/11 05:33:08;;;;;;;1.20;1.10;;;21.40;67.40;;;;;;4930526;28;88692;-74
2022/06/11 05:35:35;;;;;;;2.55;1.60;;;21.40;67.20;;;;;;4944181;28;87814;-69
2022/06/11 05:38:06;;;;;;;1.30;1.20;;;21.50;67.40;;;;;;4933964;28;87356;-71
2022/06/11 05:40:35;;;;;;;1.00;0.90;;;21.40;67.30;;;;;;4934022;28;87406;-71
2022/06/11 05:43:01;;;;;;;1.20;1.00;;;21.40;67.40;;;;;;4934853;28;87968;-70
2022/06/11 05:45:35;;;;;;;1.27;1.17;;;21.50;67.30;;;;;;4932939;28;87968;-71
2022/06/11 05:48:02;;;;;;;1.13;1.02;;;21.40;67.40;;;;;;4934381;28;88706;-73
2022/06/11 05:50:33;;;;;;;1.52;1.17;;;21.40;67.30;;;;;;4945949;28;90874;-70
2022/06/11 05:52:59;;;;;;;2.08;1.52;;;21.40;67.50;;;;;;4930761;28;87921;-71
2022/06/11 05:55:28;;;;;;;1.10;1.00;;;21.40;67.30;;;;;;4930805;28;88753;-74
2022/06/11 05:57:56;;;;;;;1.43;1.33;;;21.50;68.20;;;;;;4941946;28;87058;-70
2022/06/11 06:00:24;;;;;;;1.50;1.20;;;21.50;67.30;;;;;;4930745;28;87164;-70
2022/06/11 06:02:50;;;;;;;1.20;1.10;;;21.50;67.20;;;;;;4934013;28;87339;-70
2022/06/11 06:05:21;;;;;;;1.58;1.30;;;21.50;67.20;;;;;;4940952;28;88305;-76
2022/06/11 06:07:46;;;;;;;1.67;1.20;;;21.50;67.20;;;;;;4930943;28;87815;-75
2022/06/11 06:10:12;;;;;;;1.20;1.10;;;21.50;67.30;;;;;;4930499;28;88976;-71
2022/06/11 06:12:39;;;;;;;1.55;1.35;;;21.50;67.30;;;;;;4933958;28;87727;-74
2022/06/11 06:15:12;;;;;;;1.23;1.13;;;21.50;67.30;;;;;;4934893;28;87411;-74
2022/06/11 06:17:38;;;;;;;1.85;1.10;;;21.50;67.70;;;;;;4932539;28;87902;-74
2022/06/11 06:20:06;;;;;;;1.40;0.93;;;21.50;67.30;;;;;;4934650;28;89092;-77
2022/06/11 06:22:32;;;;;;;1.27;1.17;;;21.50;67.10;;;;;;4931527;28;90453;-70
2022/06/11 06:24:58;;;;;;;1.48;1.38;;;21.50;67.10;;;;;;4935130;28;87696;-71
2022/06/11 06:27:23;;;;;;;2.15;1.13;;;21.50;67.10;;;;;;4931938;28;87277;-76
2022/06/11 06:29:49;;;;;;;1.85;1.40;;;21.50;67.00;;;;;;4951517;28;91229;-70
2022/06/11 06:32:15;;;;;;;1.20;1.10;;;21.50;66.90;;;;;;4937234;28;88288;-73
2022/06/11 06:34:41;;;;;;;1.30;1.20;;;21.50;67.10;;;;;;4932152;28;86993;-72
2022/06/11 06:37:06;;;;;;;1.55;1.40;;;21.50;67.10;;;;;;4937910;28;86724;-74
2022/06/11 06:39:32;;;;;;;1.70;1.00;;;21.50;67.10;;;;;;4933784;28;87577;-73
2022/06/11 06:41:58;;;;;;;2.03;1.10;;;21.50;67.30;;;;;;4932023;28;88396;-74
2022/06/11 06:44:24;;;;;;;1.20;1.10;;;21.50;67.10;;;;;;4938684;28;88614;-70
2022/06/11 06:46:50;;;;;;;2.40;1.48;;;21.60;67.60;;;;;;4931872;28;87775;-71
2022/06/11 06:49:16;;;;;;;3.33;1.42;;;21.50;67.50;;;;;;4928878;28;89029;-73
2022/06/11 06:51:42;;;;;;;3.67;1.92;;;21.60;67.90;;;;;;4929466;28;88076;-75
2022/06/11 06:54:08;;;;;;;2.05;1.60;;;21.60;68.20;;;;;;4935239;28;87166;-70
2022/06/11 06:56:33;;;;;;;17.98;2.40;;;21.60;68.30;;;;;;4929460;28;87777;-76
2022/06/11 06:59:08;;;;;;;2.15;1.60;;;21.60;68.80;;;;;;4938606;28;88036;-71
2022/06/11 07:01:34;;;;;;;2.58;2.00;;;21.60;68.80;;;;;;4931334;28;87282;-72
2022/06/11 07:04:00;;;;;;;6.38;2.10;;;21.60;68.20;;;;;;4941467;28;86951;-72
2022/06/11 07:06:26;;;;;;;5.75;1.75;;;21.60;67.60;;;;;;4933632;28;88016;-70
2022/06/11 07:08:53;;;;;;;6.18;1.73;;;21.60;69.10;;;;;;4934902;28;89061;-73
2022/06/11 07:11:20;;;;;;;9.20;1.95;;;21.60;68.30;;;;;;4933352;28;88177;-71
2022/06/11 07:13:47;;;;;;;6.00;1.98;;;21.60;67.90;;;;;;4933481;28;87032;-70
2022/06/11 07:16:16;;;;;;;8.38;1.83;;;21.60;67.00;;;;;;4943784;28;87770;-72
2022/06/11 07:18:50;;;;;;;6.13;2.17;;;21.60;64.80;;;;;;4939263;28;87669;-73
2022/06/11 07:21:21;;;;;;;9.88;2.60;;;21.60;63.20;;;;;;4935624;28;87311;-72
2022/06/11 07:23:51;;;;;;;7.32;1.88;;;21.50;62.30;;;;;;4947365;28;87364;-72
2022/06/11 07:26:21;;;;;;;6.18;2.13;;;21.50;62.10;;;;;;4938569;28;87078;-72
2022/06/11 07:29:01;;;;;;;5.03;1.85;;;21.50;62.10;;;;;;4933144;28;88100;-71
2022/06/11 07:31:30;;;;;;;7.50;1.85;;;21.50;62.10;;;;;;4943505;28;91832;-71
2022/06/11 07:33:56;;;;;;;8.48;1.92;;;21.50;62.40;;;;;;4950343;28;89378;-72
2022/06/11 07:36:22;;;;;;;11.25;2.55;;;21.50;62.70;;;;;;4932272;28;87485;-70
2022/06/11 07:38:48;;;;;;;5.50;2.00;;;21.50;62.50;;;;;;4936051;28;88048;-70
2022/06/11 07:41:13;;;;;;;7.93;2.15;;;21.50;62.40;;;;;;4942096;28;87891;-70
2022/06/11 07:43:39;;;;;;;5.65;2.03;;;21.50;62.50;;;;;;4944053;28;88460;-69
2022/06/11 07:46:05;;;;;;;7.63;1.73;;;21.50;62.00;;;;;;4937523;28;87433;-73
2022/06/11 07:48:31;;;;;;;9.27;2.25;;;21.50;62.70;;;;;;4937014;28;88061;-71
2022/06/11 07:50:56;;;;;;;6.55;1.90;;;21.50;63.10;;;;;;4930362;28;89270;-70
2022/06/11 07:53:23;;;;;;;4.90;1.80;;;21.50;63.90;;;;;;4934134;28;86890;-73
2022/06/11 07:55:51;;;;;;;9.68;2.33;;;21.50;63.90;;;;;;4935334;28;87633;-75
2022/06/11 07:58:19;;;;;;;6.93;1.83;;;21.50;63.50;;;;;;4943807;28;91542;-70
2022/06/11 08:00:49;;;;;;;8.65;1.83;;;21.50;63.70;;;;;;4936510;28;88798;-72
2022/06/11 08:03:15;;;;;;;57.63;10.82;;;21.50;64.00;;;;;;4937225;28;87951;-72
2022/06/11 08:05:42;;;;;;;56.10;8.30;;;21.50;63.80;;;;;;4949675;28;90237;-76
2022/06/11 08:08:10;;;;;;;48.88;10.50;;;21.50;63.90;;;;;;4938142;28;88167;-71
2022/06/11 08:10:38;;;;;;;40.93;9.83;;;21.50;64.30;;;;;;4937808;28;87382;-71
2022/06/11 08:13:05;;;;;;;32.67;7.70;;;21.50;64.10;;;;;;4937387;28;87499;-72
2022/06/11 08:15:32;;;;;;;39.53;7.82;;;21.50;63.70;;;;;;4951276;28;89796;-75
2022/06/11 08:17:57;;;;;;;35.30;7.10;;;21.50;63.90;;;;;;4932585;28;87456;-71
2022/06/11 08:20:30;;;;;;;31.08;7.47;;;21.50;64.00;;;;;;4911225;28;88109;-70
2022/06/11 08:22:56;;;;;;;22.80;5.57;;;21.50;64.10;;;;;;4965438;28;88501;-76
2022/06/11 08:25:22;;;;;;;28.88;6.35;;;21.60;64.40;;;;;;4957973;28;87932;-75
2022/06/11 08:27:48;;;;;;;24.58;5.65;;;21.60;64.10;;;;;;4951329;28;88520;-73
2022/06/11 08:30:18;;;;;;;15.57;4.85;;;21.60;64.60;;;;;;4960752;28;87615;-72
2022/06/11 08:32:45;;;;;;;20.17;5.90;;;21.60;63.80;;;;;;4951518;28;87968;-72
2022/06/11 08:35:12;;;;;;;13.45;3.25;;;21.60;62.70;;;;;;4955274;28;87923;-72
2022/06/11 08:37:38;;;;;;;9.32;2.60;;;21.50;62.20;;;;;;4953019;28;88190;-75
2022/06/11 08:40:07;;;;;;;12.05;3.13;;;21.60;59.10;;;;;;4954833;28;89683;-72
2022/06/11 08:42:47;;;;;;;17.35;3.67;;;21.60;58.00;;;;;;4956790;28;87934;-71
2022/06/11 08:45:27;;;;;;;20.50;4.68;;;21.60;59.70;;;;;;4953586;28;87492;-72
2022/06/11 08:47:59;;;;;;;17.10;3.70;;;21.50;60.40;;;;;;4954495;28;91600;-72
2022/06/11 08:50:37;;;;;;;14.55;3.33;;;21.50;60.00;;;;;;4949804;28;89375;-73
2022/06/11 08:53:05;;;;;;;13.25;3.22;;;21.60;59.60;;;;;;4965147;28;87327;-75
2022/06/11 08:55:35;;;;;;;12.02;2.85;;;21.60;59.20;;;;;;4953957;28;88027;-75
2022/06/11 08:58:04;;;;;;;19.17;3.75;;;21.60;58.60;;;;;;4956136;28;88250;-76
2022/06/11 09:01:00;;;;;;;19.97;4.13;;;21.50;59.60;;;;;;4953542;28;87892;-74
2022/06/11 09:03:55;;;;;;;15.20;3.92;;;21.60;59.80;;;;;;4938078;28;87485;-74
2022/06/11 09:06:42;;;;;;;16.20;3.45;;;21.60;60.70;;;;;;4951346;28;87575;-74
2022/06/11 09:09:26;;;;;;;14.35;4.03;;;21.60;61.00;;;;;;4953840;28;88025;-76
2022/06/11 09:12:00;;;;;;;15.88;3.67;;;21.60;62.10;;;;;;4950560;28;87806;-74
2022/06/11 09:14:38;;;;;;;15.00;3.75;;;21.60;61.30;;;;;;4948589;28;88948;-76
2022/06/11 09:17:20;;;;;;;18.00;3.47;;;21.60;60.90;;;;;;4952325;28;88212;-74
2022/06/11 09:20:04;;;;;;;7.75;2.60;;;21.60;60.60;;;;;;4950060;28;88109;-74
2022/06/11 09:22:29;;;;;;;11.50;2.97;;;21.60;60.70;;;;;;4950710;28;87340;-74
2022/06/11 09:25:23;;;;;;;14.43;3.38;;;21.60;60.80;;;;;;4955161;28;86985;-77
2022/06/11 09:28:16;;;;;;;8.98;3.03;;;21.60;60.70;;;;;;4951599;28;88057;-75
2022/06/11 09:30:47;;;;;;;13.57;3.42;;;21.60;61.40;;;;;;4953298;28;87369;-79
2022/06/11 09:33:32;;;;;;;11.80;3.72;;;21.60;60.90;;;;;;4955088;28;87900;-74
2022/06/11 09:36:04;;;;;;;12.30;3.25;;;21.60;61.10;;;;;;4948954;28;88172;-75
2022/06/11 09:38:45;;;;;;;8.20;3.00;;;21.70;61.60;;;;;;4949968;28;87105;-75
2022/06/11 09:41:34;;;;;;;10.32;3.10;;;21.70;61.90;;;;;;4957618;28;89030;-77
2022/06/11 09:44:28;;;;;;;26.00;6.05;;;21.70;61.90;;;;;;4949763;28;88467;-76
2022/06/11 09:47:00;;;;;;;22.88;6.22;;;21.70;62.30;;;;;;4949500;28;88119;-77
2022/06/11 09:49:31;;;;;;;24.25;5.93;;;21.70;63.50;;;;;;4951162;28;87075;-73
2022/06/11 09:52:17;;;;;;;29.27;7.30;;;21.70;62.90;;;;;;4950219;28;88043;-74
2022/06/11 09:54:56;;;;;;;23.98;6.53;;;21.70;62.80;;;;;;4953589;28;87810;-73
2022/06/11 09:57:29;;;;;;;31.65;7.15;;;21.70;63.10;;;;;;4950366;28;88069;-73
2022/06/11 10:00:22;;;;;;;30.58;7.25;;;21.70;63.50;;;;;;4962020;28;87837;-74
2022/06/11 10:03:01;;;;;;;26.30;6.88;;;21.70;64.40;;;;;;4954301;28;88182;-73
2022/06/11 10:05:48;;;;;;;23.73;5.72;;;21.70;65.70;;;;;;4950152;28;88210;-76
2022/06/11 10:08:24;;;;;;;23.98;5.90;;;21.70;66.20;;;;;;4951925;28;88888;-75
2022/06/11 10:10:51;;;;;;;22.10;6.55;;;21.70;66.40;;;;;;4954611;28;87946;-74
2022/06/11 10:13:39;;;;;;;21.38;5.93;;;21.70;66.00;;;;;;4949378;28;88890;-74
2022/06/11 10:16:18;;;;;;;23.88;5.65;;;21.70;66.40;;;;;;4951987;28;88002;-73
2022/06/11 10:18:46;;;;;;;18.48;5.43;;;21.70;66.50;;;;;;4950203;28;88140;-76
2022/06/11 10:21:14;;;;;;;15.88;4.93;;;21.70;66.80;;;;;;4949233;28;87286;-73
2022/06/11 10:23:45;;;;;;;19.57;5.57;;;21.70;66.80;;;;;;4949772;28;88152;-73
2022/06/11 10:26:20;;;;;;;22.45;5.95;;;21.70;66.70;;;;;;4949741;28;87171;-76
2022/06/11 10:29:10;;;;;;;23.20;5.35;;;21.70;67.10;;;;;;4952854;28;86901;-72
2022/06/11 10:31:42;;;;;;;16.95;4.93;;;21.70;66.90;;;;;;4952143;28;87300;-73
2022/06/11 10:34:21;;;;;;;21.48;5.15;;;21.70;65.80;;;;;;4948496;28;89072;-73
2022/06/11 10:37:07;;;;;;;;;;;21.80;65.80;;;;;;4950087;28;89304;-74
2022/06/11 10:39:45;;;;;;;21.67;4.57;;;21.80;65.20;;;;;;4954476;28;87566;-73
2022/06/11 10:42:17;;;;;;;21.00;4.32;;;21.80;65.80;;;;;;4952888;28;87836;-72
2022/06/11 10:44:49;;;;;;;24.08;4.50;;;21.80;66.10;;;;;;4958513;28;88151;-73
2022/06/11 10:47:38;;;;;;;16.77;4.18;;;21.80;66.20;;;;;;4966078;28;91218;-75
2022/06/11 10:50:09;;;;;;;16.27;4.67;;;21.80;66.50;;;;;;4953185;28;87599;-73
2022/06/11 10:52:43;;;;;;;17.05;5.18;;;21.90;66.80;;;;;;4953159;28;87129;-75
2022/06/11 10:55:36;;;;;;;35.78;5.13;;;21.90;66.80;;;;;;4952706;28;88815;-74
2022/06/11 10:58:30;;;;;;;18.70;3.83;;;21.90;66.90;;;;;;4943936;28;88383;-75
2022/06/11 11:01:06;;;;;;;19.58;4.43;;;22.00;67.00;;;;;;4952288;28;88421;-73
2022/06/11 11:03:38;;;;;;;23.08;4.68;;;22.00;67.30;;;;;;4949608;28;88183;-76
2022/06/11 11:06:16;;;;;;;23.58;4.63;;;21.90;67.40;;;;;;4953799;28;88260;-75
2022/06/11 11:08:53;;;;;;;19.38;4.65;;;22.00;67.40;;;;;;4950471;28;88407;-75
2022/06/11 11:11:19;;;;;;;14.15;4.13;;;22.00;67.50;;;;;;4950307;28;87371;-78
2022/06/11 11:13:47;;;;;;;18.58;4.40;;;21.90;67.60;;;;;;4950175;28;87555;-73
2022/06/11 11:16:12;;;;;;;16.70;4.45;;;21.90;67.90;;;;;;4950226;28;88131;-77
2022/06/11 11:18:51;;;;;;;18.88;3.92;;;21.90;67.70;;;;;;4953491;28;88252;-74
2022/06/11 11:21:33;;;;;;;23.88;4.80;;;21.90;68.20;;;;;;4949638;28;88533;-74
2022/06/11 11:24:12;;;;;;;13.88;3.75;;;21.90;68.20;;;;;;4947705;28;88094;-72
2022/06/11 11:27:00;;;;;;;22.05;4.95;;;21.90;69.20;;;;;;4948497;28;88511;-76
2022/06/11 11:29:28;;;;;;;22.17;4.88;;;21.90;68.20;;;;;;4949633;28;88692;-72
2022/06/11 11:31:58;;;;;;;13.93;4.60;;;21.90;68.60;;;;;;4949666;28;87969;-74
2022/06/11 11:34:29;;;;;;;16.52;3.95;;;21.90;68.90;;;;;;4947234;28;88835;-72
2022/06/11 11:37:04;;;;;;;16.85;4.40;;;21.90;69.00;;;;;;4949455;28;88607;-76
2022/06/11 11:39:31;;;;;;;21.30;5.15;;;21.90;68.90;;;;;;4949443;28;88039;-73
2022/06/11 11:42:09;;;;;;;14.95;4.45;;;21.90;68.60;;;;;;4948750;28;87840;-77
2022/06/11 11:44:40;;;;;;;13.38;3.85;;;21.90;69.20;;;;;;4950627;28;87388;-73
2022/06/11 11:47:14;;;;;;;17.55;4.38;;;22.00;69.10;;;;;;4947398;28;88618;-75
2022/06/11 11:49:40;;;;;;;15.02;3.72;;;21.90;69.20;;;;;;4948069;28;89255;-76
2022/06/11 11:52:18;;;;;;;19.58;4.40;;;21.90;69.30;;;;;;4948725;28;88129;-75
2022/06/11 11:54:54;;;;;;;20.35;4.03;;;22.00;69.90;;;;;;4948422;28;87422;-76
2022/06/11 11:57:20;;;;;;;19.35;4.15;;;22.00;70.50;;;;;;4947612;28;88554;-74
2022/06/11 12:00:21;;;;;;;17.30;4.10;;;22.00;69.50;;;;;;4948996;28;88363;-74
2022/06/11 12:02:48;;;;;;;15.50;4.43;;;22.00;69.30;;;;;;4950668;28;86946;-76
2022/06/11 12:05:23;;;;;;;11.77;3.80;;;22.00;69.50;;;;;;4948921;28;87437;-75
2022/06/11 12:07:50;;;;;;;13.20;4.13;;;22.00;69.50;;;;;;4951473;28;89362;-74
2022/06/11 12:10:24;;;;;;;15.18;4.05;;;22.00;68.30;;;;;;4949673;28;86863;-74
2022/06/11 12:12:53;;;;;;;13.00;3.40;;;22.00;68.60;;;;;;4949899;28;87993;-73
2022/06/11 12:15:28;;;;;;;8.93;3.80;;;22.00;69.70;;;;;;4950015;28;87441;-75
2022/06/11 12:18:14;;;;;;;15.05;3.95;;;22.00;69.50;;;;;;4949061;28;88880;-74
2022/06/11 12:20:47;;;;;;;20.45;3.80;;;22.00;69.00;;;;;;4952589;28;88747;-74
2022/06/11 12:23:29;;;;;;;14.15;3.60;;;22.00;69.10;;;;;;4954031;28;87965;-75
2022/06/11 12:26:01;;;;;;;11.93;3.65;;;21.90;69.20;;;;;;4948955;28;88047;-77
2022/06/11 12:28:34;;;;;;;13.32;3.90;;;21.90;69.40;;;;;;4950935;28;88438;-76
2022/06/11 12:31:00;;;;;;;17.25;3.67;;;21.90;69.60;;;;;;4955853;28;88109;-77
2022/06/11 12:33:27;;;;;;;11.90;3.53;;;21.90;69.60;;;;;;4948738;28;87213;-74
2022/06/11 12:35:58;;;;;;;11.50;3.63;;;21.90;69.20;;;;;;4956463;28;86841;-74
2022/06/11 12:38:44;;;;;;;13.15;3.67;;;21.90;70.00;;;;;;4951209;28;88045;-71
2022/06/11 12:41:29;;;;;;;14.05;3.80;;;21.90;69.80;;;;;;4953444;28;87646;-72
2022/06/11 12:44:16;;;;;;;11.55;3.45;;;21.90;69.70;;;;;;4951309;28;88368;-73
2022/06/11 12:46:54;;;;;;;9.68;3.83;;;21.90;70.00;;;;;;4951519;28;88162;-71
2022/06/11 12:49:19;;;;;;;10.93;3.72;;;21.90;69.50;;;;;;4951415;28;87748;-74
2022/06/11 12:51:54;;;;;;;8.57;2.78;;;21.90;69.30;;;;;;4949340;28;90881;-72
2022/06/11 12:54:27;;;;;;;14.23;3.40;;;21.90;69.40;;;;;;4950809;28;87453;-75
2022/06/11 12:57:29;;;;;;;10.68;2.90;;;21.90;69.60;;;;;;4956303;28;88850;-72
2022/06/11 12:59:54;;;;;;;10.48;3.47;;;21.90;69.40;;;;;;4949762;28;91410;-72
2022/06/11 13:02:42;;;;;;;13.48;4.07;;;21.90;69.20;;;;;;4951426;28;87740;-73
2022/06/11 13:05:28;;;;;;;10.93;3.45;;;22.00;69.40;;;;;;4951483;28;88018;-72
2022/06/11 13:08:21;;;;;;;10.65;3.22;;;22.00;69.00;;;;;;4953798;28;87877;-73
2022/06/11 13:11:22;;;;;;;9.98;3.00;;;22.00;69.40;;;;;;4955173;28;91059;-71